| Record Date MM/DD/YYYY | Record Time HH:MM:SS | Record Julian Date NNN day of the year | Air Temperature Max (Degrees Fahrenheit F) | Time Max Air Temperature HH:MM:SS This is the time of max air temp for the prior hour interval listed for record [Time]. | Air Temperature Min (Degrees Fahrenheit F) | Time Min Air Temperature HH:MM:SS This is the time of min air temp for the prior hour interval listed for record [Time]. | Air Temperature Observed (Degrees Fahrenheit F) This is an instantaneous reading at the record [Time]. | Relative Humidity Max (Percent) | Time Max Relative Humidity HH:MM:SS This is the time of max relative humidity for the prior hour interval listed for record [Time]. | Relative Humidity Min (Percent) | Time Min Relative Humidity HH:MM:SS This is the time of min relative humidity for the prior hour interval listed for record [Time]. | Relative Humidity Observed (Percent) This is an instantaneous reading at the record [Time]. | Precipitation (Inches n.nn) rain fall that occurred during the prior hour interval listed for record [Time]. | Wind Speed (Miles Per Hour) Resultant Speed that occurred during the prior hour interval listed for record [Time]. | Wind Direction (Degrees) Resultant Direction that occurred during the prior hour interval listed for record [Time]. | Solar Radiation (Langley's) that occurred during the prior hour interval listed for record [Time]. | Soil Temperature Average at 2 inch depth (Degrees Fahrenheit F) that occurred during the prior hour interval listed for record [Time]. | Soil Temperature Observed at 2 inch depth (Degrees Fahrenheit F) This is an instantaneous reading at the record [Time]. | Soil Temperature Average at 4 inch depth (Degrees Fahrenheit F) that occurred during the prior hour interval listed for record [Time]. | Soil Temperature Observed at 4 inch depth (Degrees Fahrenheit F) This is an instantaneous reading at the record [Time]. |
|---|---|---|---|---|---|---|---|---|---|---|---|---|---|---|---|---|---|---|---|---|
| 04/30/2026 | 0:00:00 | 120 | 67 | 23:00:05 | 66 | 23:58:04 | 66 | 100 | 23:00:00 | 100 | 23:34:01 | 100 | 0 | 2.8 | 342 | 72 | 72 | 72 | 72 | |
| 04/30/2026 | 1:00:00 | 120 | 66 | 0:45:02 | 66 | 0:38:01 | 66 | 100 | 0:00:00 | 100 | 0:00:00 | 100 | 0.02 | 1.9 | 343 | 72 | 72 | 72 | 72 | |
| 04/30/2026 | 2:00:00 | 120 | 66 | 1:00:01 | 64 | 1:50:04 | 64 | 100 | 1:00:00 | 100 | 1:00:00 | 100 | 0.17 | 2.8 | 336 | 72 | 71 | 72 | 72 | |
| 04/30/2026 | 3:00:00 | 120 | 65 | 2:08:05 | 64 | 2:44:00 | 64 | 100 | 2:00:00 | 100 | 2:00:00 | 100 | 0.02 | 2.6 | 334 | 71 | 71 | 72 | 72 | |
| 04/30/2026 | 4:00:00 | 120 | 64 | 3:00:00 | 63 | 3:58:03 | 63 | 100 | 3:00:00 | 100 | 3:00:00 | 100 | 0.23 | 3.4 | 325 | 71 | 70 | 72 | 71 | |
| 04/30/2026 | 5:00:00 | 120 | 63 | 4:14:04 | 62 | 4:59:03 | 62 | 100 | 4:00:00 | 100 | 4:00:00 | 100 | 0 | 2.9 | 315 | 70 | 70 | 71 | 71 | |
| 04/30/2026 | 6:00:00 | 120 | 63 | 5:12:04 | 62 | 5:39:04 | 62 | 100 | 5:00:00 | 100 | 5:57:02 | 99.5 | 0 | 2.6 | 314 | 70 | 70 | 71 | 71 | |
| 04/30/2026 | 7:00:00 | 120 | 63 | 6:33:05 | 62 | 6:01:03 | 63 | 100 | 6:00:01 | 99 | 6:41:04 | 99 | 0 | 1.9 | 311 | 70 | 70 | 71 | 71 | |
| 04/30/2026 | 8:00:00 | 120 | 64 | 7:55:01 | 63 | 7:03:00 | 64 | 99 | 7:23:04 | 98 | 7:59:00 | 97.7 | 0.02 | 2.3 | 309 | 70 | 70 | 71 | 71 | |
| 04/30/2026 | 9:00:00 | 120 | 65 | 8:55:04 | 63 | 8:08:01 | 65 | 98 | 8:02:05 | 95 | 8:57:03 | 95.3 | 0 | 2.2 | 306 | 70 | 70 | 71 | 71 | |
| 04/30/2026 | 10:00:00 | 120 | 66 | 9:58:03 | 65 | 9:45:05 | 66 | 96 | 9:01:05 | 94 | 9:35:01 | 93.9 | 0 | 2.1 | 304 | 70 | 70 | 71 | 70 | |
| 04/30/2026 | 11:00:00 | 120 | 66 | 10:06:02 | 65 | 10:56:02 | 65 | 95 | 10:25:05 | 91 | 10:56:02 | 92.5 | 0 | 2.5 | 306 | 70 | 70 | 70 | 70 | |
| 04/30/2026 | 12:00:00 | 120 | 68 | 11:59:02 | 65 | 11:00:04 | 68 | 93 | 11:02:00 | 85 | 12:00:00 | 85.2 | 0 | 2.7 | 302 | 70 | 71 | 70 | 70 | |
| 04/30/2026 | 13:00:00 | 120 | 70 | 12:27:01 | 68 | 12:59:05 | 68 | 88 | 12:01:00 | 80 | 12:22:04 | 81.9 | 0 | 2.7 | 303 | 71 | 71 | 70 | 70 | |
| 04/30/2026 | 14:00:00 | 120 | 70 | 13:58:05 | 68 | 13:26:00 | 70 | 87 | 13:05:05 | 79 | 13:50:01 | 78.89 | 0 | 2.8 | 308 | 71 | 71 | 71 | 71 | |
| 04/30/2026 | 15:00:00 | 120 | 71 | 14:15:02 | 69 | 14:05:05 | 70 | 85 | 14:11:04 | 76 | 14:56:00 | 77.95 | 0 | 2.5 | 306 | 71 | 72 | 71 | 71 | |
| 04/30/2026 | 16:00:00 | 120 | 71 | 15:06:01 | 69 | 15:33:01 | 69 | 80 | 15:09:04 | 74 | 15:02:01 | 77.57 | 0 | 3.7 | 312 | 72 | 72 | 71 | 71 | |
| 04/30/2026 | 17:00:00 | 120 | 70 | 16:04:03 | 67 | 16:57:00 | 67 | 81 | 16:37:05 | 76 | 16:10:02 | 79.89 | 0 | 2.5 | 318 | 72 | 72 | 71 | 71 | |
| 04/30/2026 | 18:00:00 | 120 | 68 | 17:18:00 | 67 | 17:59:05 | 67 | 89 | 17:58:01 | 79 | 17:01:01 | 86.9 | 0 | 0.8 | 322 | 72 | 71 | 71 | 71 | |
| 04/30/2026 | 19:00:00 | 120 | 67 | 18:00:02 | 62 | 18:59:00 | 62 | 99 | 18:53:03 | 87 | 18:00:05 | 98.2 | 0.09 | 0.8 | 331 | 71 | 71 | 71 | 71 | |
| 04/30/2026 | 20:00:00 | 120 | 62 | 19:00:00 | 61 | 19:59:05 | 61 | 98 | 19:00:01 | 97 | 19:18:02 | 97.8 | 0.03 | 1.2 | 320 | 70 | 70 | 71 | 71 | |
| 04/30/2026 | 21:00:00 | 120 | 61 | 20:47:03 | 61 | 20:14:00 | 61 | 99 | 20:57:04 | 98 | 20:00:00 | 99.3 | 0.01 | 0.5 | 325 | 70 | 70 | 71 | 71 | |
| 04/30/2026 | 22:00:00 | 120 | 61 | 21:14:00 | 61 | 21:55:04 | 61 | 100 | 21:45:01 | 99 | 21:00:00 | 100 | 0.01 | 1.6 | 331 | 70 | 69 | 70 | 70 | |
| 04/30/2026 | 23:00:00 | 120 | 61 | 22:24:03 | 60 | 22:56:03 | 60 | 100 | 22:03:02 | 100 | 22:56:03 | 99.9 | 0 | 1.0 | 316 | 69 | 69 | 70 | 70 | |
| 05/01/2026 | 0:00:00 | 121 | 60 | 23:50:00 | 60 | 23:31:05 | 60 | 100 | 23:02:03 | 99 | 23:42:03 | 99.2 | 0.01 | 1.3 | 319 | 69 | 69 | 70 | 70 | |
| 05/01/2026 | 1:00:00 | 121 | 60 | 0:00:00 | 59 | 0:47:04 | 60 | 99 | 0:00:01 | 99 | 0:57:03 | 99 | 0 | 0.0 | 320 | 69 | 69 | 70 | 70 | |
| 05/01/2026 | 2:00:00 | 121 | 60 | 1:05:05 | 59 | 1:35:02 | 59 | 100 | 1:42:00 | 99 | 1:01:02 | 99.3 | 0 | 0.0 | 325 | 68 | 68 | 70 | 70 | |
| 05/01/2026 | 3:00:00 | 121 | 60 | 2:27:01 | 59 | 2:03:03 | 60 | 99 | 2:44:02 | 99 | 2:15:02 | 99 | 0 | 0.1 | 335 | 68 | 68 | 69 | 69 | |
| 05/01/2026 | 4:00:00 | 121 | 60 | 3:59:00 | 59 | 3:05:00 | 60 | 99 | 3:59:01 | 99 | 3:05:00 | 99.4 | 0 | 0.1 | 318 | 68 | 68 | 69 | 69 | |
| 05/01/2026 | 5:00:00 | 121 | 60 | 4:00:01 | 59 | 4:59:05 | 59 | 99 | 4:00:01 | 98 | 4:59:05 | 97.6 | 0 | 1.6 | 312 | 68 | 68 | 69 | 69 | |
| 05/01/2026 | 6:00:00 | 121 | 60 | 5:06:04 | 59 | 5:45:03 | 59 | 98 | 5:02:04 | 95 | 5:55:01 | 95.3 | 0 | 1.6 | 312 | 68 | 68 | 69 | 69 | |
| 05/01/2026 | 7:00:00 | 121 | 59 | 6:00:01 | 59 | 6:58:05 | 59 | 97 | 6:57:01 | 95 | 6:06:05 | 96.4 | 0 | 0.6 | 318 | 68 | 67 | 69 | 69 | |
| 05/01/2026 | 8:00:00 | 121 | 59 | 7:03:03 | 58 | 7:32:02 | 58 | 99 | 8:00:00 | 96 | 7:11:02 | 98.8 | 0.05 | 0.7 | 325 | 67 | 67 | 69 | 69 | |
| 05/01/2026 | 9:00:00 | 121 | 58 | 8:40:01 | 58 | 8:20:02 | 58 | 100 | 9:00:00 | 99 | 8:02:01 | 99.5 | 0.1 | 0.9 | 319 | 67 | 67 | 68 | 68 | |
| 05/01/2026 | 10:00:00 | 121 | 59 | 9:59:05 | 58 | 9:13:01 | 59 | 100 | 9:07:02 | 98 | 9:57:01 | 97.9 | 0.02 | 1.3 | 310 | 67 | 67 | 68 | 68 | |
| 05/01/2026 | 11:00:00 | 121 | 60 | 10:24:04 | 59 | 10:02:03 | 59 | 98 | 10:01:00 | 94 | 10:39:00 | 95.2 | 0.01 | 0.6 | 306 | 67 | 67 | 68 | 68 | |
| 05/01/2026 | 12:00:00 | 121 | 59 | 11:04:05 | 58 | 11:44:04 | 58 | 98 | 11:58:05 | 95 | 11:08:00 | 97.7 | 0.08 | 0.6 | 305 | 67 | 67 | 68 | 68 | |
| 05/01/2026 | 13:00:00 | 121 | 59 | 12:38:01 | 58 | 12:16:02 | 58 | 99 | 12:50:05 | 98 | 12:00:00 | 98.3 | 0.05 | 1.4 | 302 | 67 | 67 | 68 | 68 | |
| 05/01/2026 | 14:00:00 | 121 | 59 | 13:04:01 | 58 | 13:32:02 | 58 | 99 | 13:04:01 | 96 | 13:32:01 | 95.8 | 0.03 | 2.2 | 303 | 67 | 67 | 68 | 68 | |
| 05/01/2026 | 15:00:00 | 121 | 58 | 14:09:00 | 57 | 14:59:02 | 57 | 97 | 14:57:03 | 94 | 14:25:05 | 96.6 | 0 | 0.3 | 303 | 67 | 67 | 68 | 68 | |
| 05/01/2026 | 16:00:00 | 121 | 57 | 15:06:03 | 56 | 15:54:04 | 56 | 98 | 15:57:01 | 97 | 15:00:01 | 98.2 | 0.03 | 0.2 | 309 | 67 | 66 | 68 | 68 | |
| 05/01/2026 | 17:00:00 | 121 | 57 | 16:15:04 | 56 | 16:23:05 | 57 | 99 | 16:15:04 | 98 | 16:50:01 | 97.9 | 0.01 | 1.0 | 309 | 66 | 66 | 68 | 67 | |
| 05/01/2026 | 18:00:00 | 121 | 57 | 17:20:00 | 56 | 17:59:03 | 56 | 100 | 18:00:00 | 98 | 17:00:04 | 99.8 | 0.03 | 0.3 | 313 | 66 | 66 | 67 | 67 | |
| 05/01/2026 | 19:00:00 | 121 | 57 | 18:18:01 | 56 | 18:29:00 | 56 | 100 | 18:18:01 | 99 | 18:32:02 | 99.9 | 0.03 | 0.2 | 310 | 66 | 66 | 67 | 67 | |
| 05/01/2026 | 20:00:00 | 121 | 57 | 19:52:04 | 56 | 19:25:00 | 57 | 100 | 19:06:00 | 100 | 19:00:00 | 100 | 0.01 | 0.1 | 309 | 66 | 65 | 67 | 67 | |
| 05/01/2026 | 21:00:00 | 121 | 57 | 20:25:00 | 56 | 20:03:02 | 57 | 100 | 20:00:00 | 100 | 20:00:00 | 100 | 0.02 | 0.1 | 305 | 65 | 65 | 67 | 67 | |
| 05/01/2026 | 22:00:00 | 121 | 58 | 21:43:00 | 57 | 21:25:01 | 57 | 100 | 21:00:00 | 100 | 21:00:00 | 100 | 0.01 | 0.8 | 317 | 65 | 65 | 67 | 67 | |
| 05/01/2026 | 23:00:00 | 121 | 57 | 22:59:03 | 57 | 22:07:02 | 57 | 100 | 22:00:00 | 100 | 22:00:00 | 100 | 0.01 | 0.1 | 313 | 65 | 65 | 67 | 67 | |
| 05/02/2026 | 0:00:00 | 122 | 58 | 23:17:02 | 57 | 23:00:01 | 57 | 100 | 23:00:00 | 100 | 23:00:00 | 100 | 0.01 | 0.2 | 335 | 65 | 65 | 66 | 66 | |
| 05/02/2026 | 1:00:00 | 122 | 58 | 0:07:00 | 57 | 0:54:00 | 57 | 100 | 0:00:00 | 100 | 0:00:00 | 100 | 0.01 | 0.1 | 321 | 65 | 65 | 66 | 66 | |
| 05/02/2026 | 2:00:00 | 122 | 57 | 1:14:02 | 57 | 1:48:01 | 57 | 100 | 1:00:00 | 100 | 1:00:00 | 100 | 0 | 0.2 | 324 | 65 | 65 | 66 | 66 | |
| 05/02/2026 | 3:00:00 | 122 | 57 | 2:00:03 | 56 | 2:59:04 | 56 | 100 | 2:00:00 | 100 | 2:00:00 | 100 | 0.01 | 0.1 | 308 | 65 | 65 | 66 | 66 | |
| 05/02/2026 | 4:00:00 | 122 | 56 | 3:07:03 | 55 | 3:56:04 | 55 | 100 | 3:00:00 | 100 | 3:00:00 | 100 | 0 | 0.1 | 330 | 65 | 64 | 66 | 66 | |
| 05/02/2026 | 5:00:00 | 122 | 55 | 4:03:05 | 55 | 4:56:01 | 55 | 100 | 4:00:00 | 100 | 4:00:00 | 100 | 0 | 0.1 | 303 | 64 | 64 | 66 | 66 | |
| 05/02/2026 | 6:00:00 | 122 | 55 | 5:00:00 | 55 | 5:56:05 | 55 | 100 | 5:00:00 | 100 | 5:00:00 | 100 | 0 | 0.1 | 313 | 64 | 64 | 66 | 66 | |
| 05/02/2026 | 7:00:00 | 122 | 57 | 6:46:03 | 55 | 6:00:02 | 57 | 100 | 6:00:00 | 98 | 6:55:05 | 97.9 | 0 | 0.2 | 324 | 64 | 64 | 66 | 66 | |
| 05/02/2026 | 8:00:00 | 122 | 64 | 7:43:03 | 57 | 7:00:00 | 60 | 98 | 7:02:03 | 77 | 7:50:04 | 81.3 | 0 | 1.5 | 298 | 64 | 64 | 65 | 65 | |
| 05/02/2026 | 9:00:00 | 122 | 68 | 8:46:00 | 60 | 8:00:00 | 67 | 83 | 8:01:03 | 60 | 8:58:02 | 62.51 | 0 | 2.4 | 286 | 65 | 65 | 65 | 65 | |
| 05/02/2026 | 10:00:00 | 122 | 70 | 9:57:01 | 67 | 9:00:03 | 70 | 69 | 9:08:02 | 50 | 9:59:01 | 56.93 | 0 | 3.1 | 295 | 66 | 67 | 66 | 66 | |
| 05/02/2026 | 11:00:00 | 122 | 72 | 10:58:04 | 68 | 10:08:01 | 72 | 59 | 10:01:01 | 41 | 10:56:01 | 47.28 | 0 | 4.6 | 313 | 67 | 68 | 66 | 66 | |
| 05/02/2026 | 12:00:00 | 122 | 73 | 11:59:05 | 71 | 11:06:04 | 73 | 55 | 11:00:02 | 38 | 12:00:00 | 37.55 | 0 | 4.7 | 322 | 69 | 70 | 66 | 67 | |
| 05/02/2026 | 13:00:00 | 122 | 74 | 12:34:02 | 72 | 12:10:03 | 73 | 51 | 12:12:02 | 33 | 12:40:05 | 36.53 | 0 | 4.4 | 323 | 70 | 72 | 67 | 68 | |
| 05/02/2026 | 14:00:00 | 122 | 75 | 13:39:02 | 73 | 13:21:04 | 74 | 52 | 13:53:05 | 34 | 13:07:01 | 40.67 | 0 | 4.3 | 332 | 73 | 74 | 68 | 69 | |
| 05/02/2026 | 15:00:00 | 122 | 75 | 14:11:02 | 73 | 14:32:01 | 74 | 55 | 14:36:01 | 37 | 14:50:01 | 48.63 | 0 | 6.0 | 339 | 75 | 75 | 69 | 70 | |
| 05/02/2026 | 16:00:00 | 122 | 75 | 15:10:04 | 72 | 15:42:01 | 74 | 53 | 15:44:05 | 36 | 15:11:05 | 41.74 | 0 | 5.5 | 343 | 75 | 75 | 70 | 70 | |
| 05/02/2026 | 17:00:00 | 122 | 75 | 16:17:02 | 73 | 16:41:02 | 74 | 50 | 16:51:01 | 35 | 16:07:02 | 46.17 | 0 | 4.5 | 348 | 74 | 74 | 70 | 70 | |
| 05/02/2026 | 18:00:00 | 122 | 74 | 17:04:03 | 71 | 18:00:00 | 71 | 56 | 17:52:02 | 38 | 17:16:03 | 51.56 | 0 | 3.3 | 350 | 73 | 72 | 70 | 70 | |
| 05/02/2026 | 19:00:00 | 122 | 71 | 18:00:01 | 60 | 19:00:00 | 60 | 78 | 19:00:00 | 51 | 18:00:00 | 77.66 | 0 | 0.9 | 344 | 72 | 71 | 70 | 70 | |
| 05/02/2026 | 20:00:00 | 122 | 60 | 19:00:00 | 56 | 19:59:05 | 56 | 91 | 20:00:00 | 78 | 19:00:00 | 90.6 | 0 | 3.8 | 343 | 70 | 69 | 70 | 70 | |
| 05/02/2026 | 21:00:00 | 122 | 56 | 20:00:00 | 54 | 20:58:04 | 54 | 96 | 20:42:00 | 91 | 20:00:00 | 96 | 0 | 4.3 | 342 | 69 | 68 | 70 | 69 | |
| 05/02/2026 | 22:00:00 | 122 | 54 | 21:00:01 | 53 | 21:58:03 | 53 | 99 | 21:59:04 | 96 | 21:00:00 | 98.7 | 0 | 4.4 | 341 | 68 | 67 | 69 | 69 | |
| 05/02/2026 | 23:00:00 | 122 | 53 | 22:00:01 | 52 | 22:59:01 | 52 | 100 | 23:00:00 | 99 | 22:01:00 | 99.5 | 0 | 4.7 | 340 | 67 | 67 | 69 | 69 | |
| 05/03/2026 | 0:00:00 | 123 | 52 | 23:00:01 | 51 | 23:59:04 | 51 | 100 | 23:55:04 | 100 | 23:00:03 | 99.7 | 0 | 4.3 | 340 | 66 | 66 | 68 | 68 | |
| 05/03/2026 | 1:00:00 | 123 | 51 | 0:00:01 | 50 | 0:56:05 | 50 | 100 | 0:37:03 | 100 | 0:00:00 | 100 | 0 | 3.8 | 340 | 66 | 65 | 68 | 68 | |
| 05/03/2026 | 2:00:00 | 123 | 50 | 1:05:00 | 49 | 1:50:05 | 49 | 100 | 1:00:00 | 100 | 1:00:00 | 100 | 0 | 3.8 | 339 | 65 | 65 | 67 | 67 | |
| 05/03/2026 | 3:00:00 | 123 | 50 | 2:00:01 | 49 | 2:58:00 | 49 | 100 | 2:00:00 | 100 | 2:00:00 | 100 | 0 | 3.5 | 339 | 65 | 64 | 67 | 67 | |
| 05/03/2026 | 4:00:00 | 123 | 49 | 3:07:01 | 48 | 3:55:05 | 48 | 100 | 3:00:00 | 100 | 3:00:00 | 100 | 0 | 4.0 | 338 | 64 | 64 | 67 | 66 | |
| 05/03/2026 | 5:00:00 | 123 | 48 | 4:08:03 | 48 | 4:58:02 | 48 | 100 | 4:00:00 | 100 | 4:00:00 | 100 | 0 | 2.4 | 338 | 64 | 63 | 66 | 66 | |
| 05/03/2026 | 6:00:00 | 123 | 49 | 5:58:01 | 48 | 5:21:03 | 49 | 100 | 5:00:00 | 100 | 5:00:00 | 100 | 0 | 3.5 | 337 | 63 | 63 | 66 | 66 | |
| 05/03/2026 | 7:00:00 | 123 | 54 | 7:00:00 | 49 | 6:03:02 | 54 | 100 | 6:00:00 | 98 | 6:59:03 | 98.3 | 0 | 2.0 | 333 | 63 | 63 | 66 | 65 | |
| 05/03/2026 | 8:00:00 | 123 | 67 | 7:55:03 | 54 | 7:00:00 | 67 | 98 | 7:00:00 | 66 | 7:57:01 | 69.69 | 0 | 2.8 | 327 | 63 | 63 | 65 | 65 | |
| 05/03/2026 | 9:00:00 | 123 | 71 | 9:00:00 | 66 | 8:03:05 | 71 | 74 | 8:04:05 | 59 | 8:56:03 | 62.5 | 0 | 3.9 | 339 | 64 | 65 | 65 | 65 | |
| 05/03/2026 | 10:00:00 | 123 | 74 | 9:52:05 | 70 | 9:01:00 | 74 | 64 | 9:14:04 | 53 | 9:53:01 | 55.47 | 0 | 3.8 | 343 | 65 | 66 | 65 | 65 | |
| 05/03/2026 | 11:00:00 | 123 | 78 | 10:56:05 | 74 | 10:05:01 | 75 | 61 | 10:09:04 | 45 | 10:48:02 | 50.58 | 0 | 3.4 | 342 | 67 | 68 | 66 | 66 | |
| 05/03/2026 | 12:00:00 | 123 | 78 | 11:53:05 | 75 | 11:00:03 | 77 | 62 | 11:09:04 | 38 | 11:51:01 | 48.32 | 0 | 4.7 | 348 | 69 | 70 | 66 | 67 | |
| 05/03/2026 | 13:00:00 | 123 | 79 | 12:59:02 | 77 | 12:13:04 | 79 | 57 | 12:37:04 | 38 | 12:03:05 | 45.48 | 0 | 4.9 | 349 | 71 | 72 | 67 | 67 | |
| 05/03/2026 | 14:00:00 | 123 | 81 | 13:26:00 | 79 | 13:52:01 | 80 | 53 | 13:55:01 | 36 | 13:25:01 | 45.62 | 0 | 4.2 | 347 | 74 | 75 | 68 | 69 | |
| 05/03/2026 | 15:00:00 | 123 | 81 | 14:38:03 | 78 | 14:43:05 | 81 | 54 | 14:05:00 | 37 | 14:36:01 | 39.21 | 0 | 4.9 | 349 | 76 | 76 | 69 | 70 | |
| 05/03/2026 | 16:00:00 | 123 | 81 | 15:13:04 | 77 | 15:20:03 | 79 | 52 | 15:12:04 | 38 | 15:01:00 | 48.52 | 0 | 3.9 | 348 | 76 | 76 | 70 | 70 | |
| 05/03/2026 | 17:00:00 | 123 | 81 | 16:46:02 | 79 | 16:06:01 | 81 | 49 | 16:05:01 | 37 | 16:39:01 | 42.7 | 0 | 3.5 | 349 | 75 | 75 | 70 | 71 | |
| 05/03/2026 | 18:00:00 | 123 | 83 | 17:18:01 | 77 | 17:57:02 | 77 | 55 | 17:53:04 | 35 | 17:14:05 | 52.85 | 0 | 0.5 | 347 | 74 | 73 | 71 | 71 | |
| 05/03/2026 | 19:00:00 | 123 | 77 | 18:00:01 | 66 | 19:00:00 | 66 | 82 | 18:54:03 | 52 | 18:00:02 | 80.8 | 0 | 2.2 | 344 | 73 | 72 | 71 | 71 | |
| 05/03/2026 | 20:00:00 | 123 | 66 | 19:00:00 | 62 | 19:59:05 | 62 | 92 | 19:59:05 | 81 | 19:00:04 | 92.4 | 0 | 4.5 | 344 | 71 | 71 | 71 | 70 | |
| 05/03/2026 | 21:00:00 | 123 | 62 | 20:00:00 | 59 | 20:59:05 | 59 | 96 | 20:59:05 | 92 | 20:00:00 | 96.2 | 0 | 5.1 | 342 | 70 | 70 | 70 | 70 | |
| 05/03/2026 | 22:00:00 | 123 | 59 | 21:00:01 | 58 | 21:59:02 | 58 | 98 | 21:55:04 | 96 | 21:00:02 | 97.9 | 0 | 4.9 | 341 | 69 | 69 | 70 | 70 | |
| 05/03/2026 | 23:00:00 | 123 | 58 | 22:00:02 | 57 | 22:59:04 | 57 | 99 | 22:57:02 | 98 | 22:17:02 | 98.7 | 0 | 3.5 | 340 | 69 | 68 | 69 | 69 | |
| 05/04/2026 | 0:00:00 | 124 | 57 | 23:00:00 | 56 | 23:44:02 | 56 | 99 | 23:41:02 | 99 | 23:05:05 | 99 | 0 | 3.1 | 340 | 68 | 68 | 69 | 69 | |
| 05/04/2026 | 1:00:00 | 124 | 56 | 0:00:00 | 55 | 0:52:04 | 55 | 99 | 0:57:03 | 99 | 0:36:00 | 99 | 0 | 3.2 | 339 | 67 | 67 | 69 | 69 | |
| 05/04/2026 | 2:00:00 | 124 | 55 | 1:00:05 | 55 | 1:58:04 | 55 | 99 | 1:20:03 | 98 | 1:46:02 | 98.6 | 0 | 3.4 | 338 | 67 | 67 | 68 | 68 | |
| 05/04/2026 | 3:00:00 | 124 | 55 | 2:00:02 | 54 | 2:49:04 | 54 | 99 | 2:54:02 | 99 | 2:02:04 | 98.9 | 0 | 3.2 | 338 | 66 | 66 | 68 | 68 | |
| 05/04/2026 | 4:00:00 | 124 | 55 | 3:23:01 | 54 | 3:59:05 | 54 | 99 | 3:03:05 | 97 | 3:27:04 | 97.6 | 0 | 2.7 | 337 | 66 | 66 | 68 | 68 | |
| 05/04/2026 | 5:00:00 | 124 | 54 | 4:00:00 | 53 | 4:56:01 | 53 | 99 | 4:59:05 | 98 | 4:00:01 | 99.4 | 0 | 3.7 | 337 | 65 | 65 | 67 | 67 | |
| 05/04/2026 | 6:00:00 | 124 | 54 | 5:57:00 | 53 | 5:17:00 | 54 | 100 | 5:26:02 | 99 | 5:59:05 | 98.9 | 0 | 3.2 | 336 | 65 | 65 | 67 | 67 | |
| 05/04/2026 | 7:00:00 | 124 | 60 | 6:59:05 | 54 | 6:00:02 | 60 | 99 | 6:10:01 | 91 | 7:00:00 | 91.1 | 0 | 2.8 | 331 | 65 | 65 | 67 | 67 | |
| 05/04/2026 | 8:00:00 | 124 | 70 | 7:59:05 | 60 | 7:00:00 | 70 | 92 | 7:00:04 | 63 | 7:54:05 | 65.78 | 0 | 2.9 | 331 | 65 | 65 | 66 | 66 | |
| 05/04/2026 | 9:00:00 | 124 | 73 | 8:58:00 | 70 | 8:01:01 | 73 | 69 | 8:04:02 | 58 | 8:53:03 | 58.59 | 0 | 5.6 | 340 | 66 | 67 | 66 | 66 | |
| 05/04/2026 | 10:00:00 | 124 | 76 | 9:50:02 | 72 | 9:07:03 | 75 | 66 | 9:25:03 | 53 | 9:44:01 | 59.81 | 0 | 6.7 | 344 | 67 | 68 | 67 | 67 | |
| 05/04/2026 | 11:00:00 | 124 | 78 | 11:00:00 | 74 | 10:03:00 | 78 | 64 | 10:56:00 | 48 | 10:59:01 | 50.09 | 0 | 7.1 | 345 | 69 | 70 | 67 | 67 | |
| 05/04/2026 | 12:00:00 | 124 | 79 | 11:55:01 | 76 | 11:21:00 | 78 | 64 | 11:21:02 | 48 | 11:01:01 | 52.69 | 0 | 7.6 | 347 | 70 | 71 | 67 | 68 | |
| 05/04/2026 | 13:00:00 | 124 | 79 | 12:37:01 | 76 | 12:03:02 | 79 | 61 | 12:28:04 | 50 | 12:32:03 | 58.94 | 0 | 7.8 | 348 | 72 | 73 | 68 | 69 | |
| 05/04/2026 | 14:00:00 | 124 | 82 | 13:38:03 | 78 | 13:15:04 | 79 | 58 | 13:12:02 | 43 | 13:38:04 | 46.91 | 0 | 8.2 | 348 | 74 | 75 | 69 | 69 | |
| 05/04/2026 | 15:00:00 | 124 | 80 | 14:02:00 | 78 | 14:16:04 | 79 | 57 | 14:35:05 | 47 | 14:03:05 | 50.78 | 0 | 9.6 | 349 | 75 | 76 | 70 | 70 | |
| 05/04/2026 | 16:00:00 | 124 | 80 | 15:06:00 | 78 | 15:12:02 | 79 | 58 | 15:15:02 | 46 | 15:21:04 | 47.04 | 0 | 8.1 | 349 | 75 | 75 | 70 | 71 | |
| 05/04/2026 | 17:00:00 | 124 | 82 | 16:26:00 | 78 | 16:12:04 | 79 | 55 | 16:37:00 | 44 | 16:41:01 | 48.52 | 0 | 5.9 | 348 | 75 | 74 | 71 | 71 | |
| 05/04/2026 | 18:00:00 | 124 | 79 | 17:05:01 | 76 | 17:59:01 | 76 | 56 | 17:59:03 | 47 | 17:03:04 | 53.54 | 0 | 5.6 | 349 | 74 | 73 | 71 | 71 | |
| 05/04/2026 | 19:00:00 | 124 | 76 | 18:01:05 | 70 | 18:59:04 | 70 | 61 | 18:58:03 | 48 | 18:05:05 | 59.95 | 0 | 1.4 | 348 | 73 | 72 | 71 | 71 | |
| 05/04/2026 | 20:00:00 | 124 | 70 | 19:00:00 | 64 | 20:00:00 | 64 | 83 | 20:00:00 | 59 | 19:02:02 | 82.7 | 0 | 2.6 | 347 | 71 | 71 | 71 | 71 | |
| 05/04/2026 | 21:00:00 | 124 | 64 | 20:00:00 | 61 | 20:59:04 | 61 | 90 | 20:57:04 | 83 | 20:01:00 | 89.9 | 0 | 3.9 | 347 | 70 | 70 | 70 | 70 | |
| 05/04/2026 | 22:00:00 | 124 | 61 | 21:00:01 | 60 | 21:58:01 | 60 | 93 | 21:48:02 | 90 | 21:00:00 | 92.8 | 0 | 4.2 | 346 | 70 | 69 | 70 | 70 | |
| 05/04/2026 | 23:00:00 | 124 | 61 | 23:00:00 | 60 | 22:17:04 | 61 | 93 | 22:06:03 | 88 | 23:00:00 | 88.3 | 0 | 3.8 | 346 | 69 | 69 | 70 | 70 | |
| 05/05/2026 | 0:00:00 | 125 | 63 | 23:57:01 | 61 | 23:00:00 | 63 | 89 | 23:01:01 | 79 | 23:57:00 | 79.41 | 0 | 3.6 | 344 | 68 | 68 | 69 | 69 | |
| 05/05/2026 | 1:00:00 | 125 | 64 | 0:14:05 | 62 | 0:59:05 | 62 | 80 | 0:59:03 | 78 | 0:14:01 | 80.2 | 0 | 3.4 | 344 | 68 | 68 | 69 | 69 | |
| 05/05/2026 | 2:00:00 | 125 | 63 | 1:11:00 | 62 | 2:00:00 | 62 | 82 | 1:54:02 | 79 | 1:10:00 | 82.3 | 0 | 3.1 | 344 | 68 | 67 | 69 | 69 | |
| 05/05/2026 | 3:00:00 | 125 | 62 | 2:10:05 | 61 | 2:59:01 | 61 | 85 | 2:59:03 | 82 | 2:10:01 | 85.3 | 0 | 2.9 | 344 | 67 | 67 | 69 | 68 | |
| 05/05/2026 | 4:00:00 | 125 | 61 | 3:55:00 | 61 | 3:24:05 | 61 | 86 | 3:33:03 | 85 | 3:16:04 | 85.8 | 0 | 2.5 | 344 | 67 | 67 | 68 | 68 | |
| 05/05/2026 | 5:00:00 | 125 | 62 | 4:18:01 | 61 | 4:00:05 | 61 | 89 | 4:20:05 | 85 | 4:19:00 | 86.4 | 0 | 3.9 | 344 | 67 | 67 | 68 | 68 | |
| 05/05/2026 | 6:00:00 | 125 | 62 | 5:59:05 | 61 | 5:17:01 | 62 | 88 | 5:40:01 | 86 | 5:05:01 | 86.4 | 0 | 3.6 | 343 | 66 | 66 | 68 | 68 | |
| 05/05/2026 | 7:00:00 | 125 | 66 | 6:59:05 | 62 | 6:00:01 | 66 | 87 | 6:01:00 | 82 | 6:58:05 | 82.5 | 0 | 3.7 | 342 | 66 | 66 | 68 | 68 | |
| 05/05/2026 | 8:00:00 | 125 | 69 | 8:00:00 | 66 | 7:00:01 | 69 | 83 | 7:00:05 | 77 | 7:57:04 | 78.1 | 0 | 3.2 | 341 | 67 | 67 | 67 | 67 | |
| 05/05/2026 | 9:00:00 | 125 | 72 | 8:54:00 | 69 | 8:09:03 | 72 | 79 | 8:16:03 | 74 | 8:59:05 | 74.18 | 0 | 3.1 | 341 | 67 | 68 | 67 | 67 | |
| 05/05/2026 | 10:00:00 | 125 | 73 | 9:51:05 | 72 | 9:00:00 | 73 | 77 | 9:32:02 | 74 | 9:53:04 | 76.57 | 0 | 3.3 | 340 | 68 | 68 | 68 | 68 | |
| 05/05/2026 | 11:00:00 | 125 | 78 | 10:59:04 | 72 | 10:07:00 | 77 | 79 | 10:10:05 | 70 | 11:00:00 | 69.59 | 0 | 3.0 | 338 | 68 | 69 | 68 | 68 | |
| 05/05/2026 | 12:00:00 | 125 | 79 | 11:59:05 | 77 | 11:36:00 | 79 | 74 | 11:47:00 | 69 | 11:08:02 | 70.93 | 0 | 2.8 | 339 | 69 | 70 | 68 | 68 | |
| 05/05/2026 | 13:00:00 | 125 | 82 | 12:22:02 | 79 | 12:00:01 | 80 | 73 | 12:17:02 | 66 | 12:25:00 | 71.86 | 0 | 2.0 | 338 | 70 | 70 | 68 | 68 | |
| 05/05/2026 | 14:00:00 | 125 | 81 | 13:33:01 | 80 | 13:18:04 | 80 | 72 | 13:30:02 | 68 | 13:10:02 | 70.57 | 0 | 2.6 | 339 | 71 | 71 | 68 | 69 | |
| 05/05/2026 | 15:00:00 | 125 | 81 | 14:25:04 | 79 | 14:45:00 | 80 | 73 | 14:51:02 | 67 | 14:13:00 | 70.16 | 0 | 2.0 | 337 | 71 | 71 | 69 | 69 | |
| 05/05/2026 | 16:00:00 | 125 | 80 | 15:00:00 | 78 | 15:50:05 | 79 | 75 | 15:54:03 | 70 | 15:01:00 | 73.81 | 0 | 2.6 | 339 | 71 | 71 | 69 | 69 | |
| 05/05/2026 | 17:00:00 | 125 | 81 | 16:29:05 | 79 | 16:00:01 | 79 | 74 | 16:04:02 | 69 | 16:30:03 | 73.51 | 0 | 3.1 | 336 | 71 | 71 | 69 | 69 | |
| 05/05/2026 | 18:00:00 | 125 | 79 | 17:00:00 | 78 | 17:59:05 | 78 | 77 | 17:59:01 | 72 | 17:03:04 | 76.99 | 0 | 2.9 | 338 | 71 | 71 | 69 | 70 | |
| 05/05/2026 | 19:00:00 | 125 | 78 | 18:00:00 | 76 | 18:58:01 | 76 | 81 | 18:58:03 | 77 | 18:02:00 | 80.5 | 0 | 2.7 | 338 | 71 | 71 | 70 | 70 | |
| 05/05/2026 | 20:00:00 | 125 | 76 | 19:02:01 | 75 | 19:59:02 | 75 | 84 | 19:59:05 | 81 | 19:00:02 | 83.9 | 0 | 2.2 | 336 | 71 | 71 | 70 | 70 | |
| 05/05/2026 | 21:00:00 | 125 | 75 | 20:00:01 | 74 | 20:59:05 | 74 | 87 | 21:00:00 | 84 | 20:00:00 | 86.9 | 0 | 2.6 | 334 | 71 | 70 | 70 | 70 | |
| 05/05/2026 | 22:00:00 | 125 | 75 | 21:40:03 | 74 | 21:01:00 | 75 | 87 | 21:57:05 | 86 | 21:40:04 | 86.8 | 0 | 3.2 | 332 | 70 | 70 | 70 | 70 | |
| 05/05/2026 | 23:00:00 | 125 | 75 | 22:15:04 | 74 | 22:03:04 | 75 | 87 | 22:05:00 | 86 | 22:17:01 | 86.8 | 0 | 2.9 | 331 | 70 | 70 | 70 | 70 | |
| 05/06/2026 | 0:00:00 | 126 | 75 | 23:02:00 | 73 | 23:50:03 | 73 | 91 | 0:00:00 | 87 | 23:00:02 | 90.8 | 0 | 2.6 | 331 | 70 | 70 | 70 | 70 | |
| 05/06/2026 | 1:00:00 | 126 | 74 | 0:59:05 | 73 | 0:40:00 | 74 | 91 | 0:41:00 | 90 | 0:12:00 | 90.7 | 0 | 2.0 | 332 | 70 | 70 | 70 | 69 | |
| 05/06/2026 | 2:00:00 | 126 | 74 | 1:07:03 | 73 | 1:46:03 | 74 | 92 | 1:51:03 | 90 | 1:09:01 | 90.9 | 0 | 2.9 | 331 | 70 | 70 | 69 | 69 | |
| 05/06/2026 | 3:00:00 | 126 | 74 | 2:19:01 | 74 | 2:58:01 | 74 | 91 | 2:00:01 | 90 | 2:47:04 | 90.3 | 0 | 3.2 | 332 | 70 | 70 | 69 | 69 | |
| 05/06/2026 | 4:00:00 | 126 | 74 | 3:09:03 | 73 | 3:59:04 | 73 | 90 | 4:00:00 | 89 | 3:26:02 | 90.4 | 0 | 3.2 | 328 | 70 | 70 | 69 | 69 | |
| 05/06/2026 | 5:00:00 | 126 | 73 | 4:59:05 | 73 | 4:12:03 | 73 | 91 | 4:18:01 | 90 | 4:59:01 | 90.4 | 0 | 2.6 | 326 | 70 | 70 | 69 | 69 | |
| 05/06/2026 | 6:00:00 | 126 | 73 | 5:03:03 | 73 | 5:59:05 | 73 | 93 | 6:00:00 | 90 | 5:01:02 | 92.7 | 0 | 0.4 | 325 | 70 | 70 | 69 | 69 | |
| 05/06/2026 | 7:00:00 | 126 | 73 | 6:39:02 | 73 | 6:05:02 | 73 | 94 | 6:55:05 | 93 | 6:37:05 | 93.4 | 0 | 1.6 | 319 | 70 | 70 | 69 | 69 | |
| 05/06/2026 | 8:00:00 | 126 | 76 | 7:59:05 | 73 | 7:00:02 | 76 | 94 | 7:05:00 | 89 | 7:58:03 | 89.9 | 0 | 1.6 | 316 | 70 | 70 | 69 | 69 | |
| 05/06/2026 | 9:00:00 | 126 | 79 | 8:59:05 | 76 | 8:00:00 | 79 | 90 | 8:00:04 | 86 | 8:59:03 | 86.4 | 0 | 3.6 | 315 | 70 | 71 | 69 | 69 | |
| 05/06/2026 | 10:00:00 | 126 | 79 | 9:18:05 | 78 | 9:07:03 | 78 | 89 | 9:58:05 | 85 | 9:20:03 | 88.5 | 0 | 3.2 | 313 | 71 | 71 | 70 | 70 | |
| 05/06/2026 | 11:00:00 | 126 | 81 | 10:44:05 | 78 | 10:04:03 | 81 | 90 | 10:07:01 | 82 | 10:47:03 | 84.7 | 0 | 2.6 | 307 | 71 | 72 | 70 | 70 | |
| 05/06/2026 | 12:00:00 | 126 | 86 | 11:37:00 | 81 | 11:00:00 | 83 | 84 | 11:00:00 | 74 | 11:38:01 | 78.97 | 0 | 4.6 | 316 | 72 | 73 | 70 | 70 | |
| 05/06/2026 | 13:00:00 | 126 | 85 | 12:20:01 | 82 | 12:40:04 | 83 | 83 | 12:12:00 | 77 | 12:30:01 | 80.5 | 0 | 4.7 | 322 | 73 | 74 | 70 | 70 | |
| 05/06/2026 | 14:00:00 | 126 | 83 | 13:00:03 | 74 | 13:59:05 | 74 | 89 | 13:54:03 | 80 | 13:00:04 | 87.4 | 0 | 2.7 | 330 | 74 | 74 | 71 | 71 | |
| 05/06/2026 | 15:00:00 | 126 | 74 | 14:00:00 | 66 | 14:49:05 | 67 | 99 | 15:00:00 | 87 | 14:00:03 | 99.1 | 0.14 | 4.7 | 332 | 73 | 73 | 71 | 71 | |
| 05/06/2026 | 16:00:00 | 126 | 67 | 15:02:00 | 65 | 15:55:01 | 65 | 100 | 15:58:03 | 99 | 15:10:00 | 99.9 | 0.13 | 2.9 | 337 | 72 | 72 | 71 | 71 | |
| 05/06/2026 | 17:00:00 | 126 | 66 | 16:12:03 | 64 | 16:58:00 | 64 | 100 | 16:07:02 | 99 | 16:57:00 | 98.9 | 0.03 | 3.6 | 334 | 72 | 71 | 71 | 71 | |
| 05/06/2026 | 18:00:00 | 126 | 64 | 17:00:01 | 62 | 17:52:05 | 62 | 99 | 17:39:02 | 98 | 17:04:00 | 99.3 | 0.02 | 3.0 | 327 | 71 | 71 | 71 | 71 | |
| 05/06/2026 | 19:00:00 | 126 | 62 | 18:00:01 | 61 | 18:33:05 | 61 | 100 | 18:43:01 | 99 | 18:02:01 | 99.6 | 0 | 1.2 | 333 | 70 | 70 | 71 | 70 | |
| 05/06/2026 | 20:00:00 | 126 | 61 | 19:02:05 | 60 | 19:58:05 | 60 | 100 | 19:31:04 | 100 | 19:04:00 | 100 | 0.34 | 2.1 | 335 | 70 | 69 | 70 | 70 | |
| 05/06/2026 | 21:00:00 | 126 | 60 | 20:02:00 | 59 | 20:57:04 | 60 | 100 | 20:00:00 | 100 | 20:00:00 | 100 | 0.04 | 2.8 | 336 | 69 | 68 | 70 | 70 | |
| 05/06/2026 | 22:00:00 | 126 | 60 | 21:06:03 | 59 | 21:40:04 | 59 | 100 | 21:00:00 | 100 | 21:00:00 | 100 | 0 | 3.4 | 343 | 68 | 68 | 69 | 69 | |
| Average | 66.78 | 64.61 | 65.6 | 87.23 | 81.19 | 84.13 | 0.01 | 2.83 | 0 | 69.01 | 69.01 | 68.8 | 68.82 | |||||||
| Total | 1.83 |